sensor_id;sensor_type;location;lat;lon;timestamp;P1;durP1;ratioP1;P2;durP2;ratioP2
53513;SDS011;39768;54.148;12.174;2023-03-23T00:00:40;0.85;;;0.80;;
53513;SDS011;39768;54.148;12.174;2023-03-23T00:04:41;1.42;;;1.25;;
53513;SDS011;39768;54.148;12.174;2023-03-23T00:08:43;1.35;;;1.13;;
53513;SDS011;39768;54.148;12.174;2023-03-23T00:12:45;0.75;;;0.75;;
53513;SDS011;39768;54.148;12.174;2023-03-23T00:16:49;1.60;;;1.50;;
53513;SDS011;39768;54.148;12.174;2023-03-23T00:20:51;0.90;;;0.90;;
53513;SDS011;39768;54.148;12.174;2023-03-23T00:24:54;5.15;;;1.23;;
53513;SDS011;39768;54.148;12.174;2023-03-23T00:28:55;1.05;;;1.05;;
53513;SDS011;39768;54.148;12.174;2023-03-23T00:32:56;1.38;;;0.90;;
53513;SDS011;39768;54.148;12.174;2023-03-23T00:36:58;1.63;;;1.50;;
53513;SDS011;39768;54.148;12.174;2023-03-23T00:41:00;2.65;;;1.00;;
53513;SDS011;39768;54.148;12.174;2023-03-23T00:45:03;1.02;;;0.88;;
53513;SDS011;39768;54.148;12.174;2023-03-23T00:49:12;2.45;;;0.98;;
53513;SDS011;39768;54.148;12.174;2023-03-23T00:53:13;3.22;;;1.02;;
53513;SDS011;39768;54.148;12.174;2023-03-23T00:57:14;1.35;;;1.08;;
53513;SDS011;39768;54.148;12.174;2023-03-23T01:01:16;1.08;;;1.00;;
53513;SDS011;39768;54.148;12.174;2023-03-23T01:05:16;0.88;;;0.88;;
53513;SDS011;39768;54.148;12.174;2023-03-23T01:09:18;0.75;;;0.73;;
53513;SDS011;39768;54.148;12.174;2023-03-23T01:13:22;1.02;;;0.93;;
53513;SDS011;39768;54.148;12.174;2023-03-23T01:17:22;0.52;;;0.52;;
53513;SDS011;39768;54.148;12.174;2023-03-23T01:21:23;0.80;;;0.80;;
53513;SDS011;39768;54.148;12.174;2023-03-23T01:25:25;1.48;;;0.63;;
53513;SDS011;39768;54.148;12.174;2023-03-23T01:29:26;0.80;;;0.80;;
53513;SDS011;39768;54.148;12.174;2023-03-23T01:33:27;1.13;;;1.00;;
53513;SDS011;39768;54.148;12.174;2023-03-23T01:37:28;1.10;;;1.10;;
53513;SDS011;39768;54.148;12.174;2023-03-23T01:41:30;0.85;;;0.85;;
53513;SDS011;39768;54.148;12.174;2023-03-23T01:45:34;1.00;;;1.00;;
53513;SDS011;39768;54.148;12.174;2023-03-23T01:49:36;0.82;;;0.50;;
53513;SDS011;39768;54.148;12.174;2023-03-23T01:53:40;1.85;;;1.08;;
53513;SDS011;39768;54.148;12.174;2023-03-23T01:57:45;1.40;;;1.33;;
53513;SDS011;39768;54.148;12.174;2023-03-23T02:01:48;1.08;;;0.98;;
53513;SDS011;39768;54.148;12.174;2023-03-23T02:05:52;2.95;;;1.10;;
53513;SDS011;39768;54.148;12.174;2023-03-23T02:10:05;1.08;;;0.98;;
53513;SDS011;39768;54.148;12.174;2023-03-23T02:14:09;1.10;;;1.08;;
53513;SDS011;39768;54.148;12.174;2023-03-23T02:18:16;0.90;;;0.80;;
53513;SDS011;39768;54.148;12.174;2023-03-23T02:27:02;0.80;;;0.80;;
53513;SDS011;39768;54.148;12.174;2023-03-23T02:35:30;0.85;;;0.60;;
53513;SDS011;39768;54.148;12.174;2023-03-23T02:39:48;0.65;;;0.65;;
53513;SDS011;39768;54.148;12.174;2023-03-23T02:43:51;1.15;;;0.93;;
53513;SDS011;39768;54.148;12.174;2023-03-23T02:47:53;2.65;;;1.58;;
53513;SDS011;39768;54.148;12.174;2023-03-23T02:51:56;2.35;;;1.23;;
53513;SDS011;39768;54.148;12.174;2023-03-23T02:56:00;1.80;;;1.30;;
53513;SDS011;39768;54.148;12.174;2023-03-23T03:00:06;2.03;;;1.73;;
53513;SDS011;39768;54.148;12.174;2023-03-23T03:04:11;5.55;;;1.30;;
53513;SDS011;39768;54.148;12.174;2023-03-23T03:08:16;1.13;;;0.85;;
53513;SDS011;39768;54.148;12.174;2023-03-23T03:12:32;2.65;;;1.27;;
53513;SDS011;39768;54.148;12.174;2023-03-23T03:20:54;0.80;;;0.80;;
53513;SDS011;39768;54.148;12.174;2023-03-23T03:25:00;1.58;;;1.20;;
53513;SDS011;39768;54.148;12.174;2023-03-23T03:29:02;1.95;;;1.50;;
53513;SDS011;39768;54.148;12.174;2023-03-23T03:33:12;3.25;;;1.70;;
53513;SDS011;39768;54.148;12.174;2023-03-23T03:37:13;0.90;;;0.88;;
53513;SDS011;39768;54.148;12.174;2023-03-23T03:41:16;1.30;;;1.20;;
53513;SDS011;39768;54.148;12.174;2023-03-23T03:45:20;1.88;;;1.52;;
53513;SDS011;39768;54.148;12.174;2023-03-23T03:49:21;1.17;;;1.10;;
53513;SDS011;39768;54.148;12.174;2023-03-23T03:53:23;1.55;;;1.25;;
53513;SDS011;39768;54.148;12.174;2023-03-23T03:57:24;1.40;;;1.30;;
53513;SDS011;39768;54.148;12.174;2023-03-23T04:01:43;1.13;;;1.10;;
53513;SDS011;39768;54.148;12.174;2023-03-23T04:05:43;0.98;;;0.90;;
53513;SDS011;39768;54.148;12.174;2023-03-23T04:09:45;1.20;;;0.95;;
53513;SDS011;39768;54.148;12.174;2023-03-23T04:13:49;0.93;;;0.88;;
53513;SDS011;39768;54.148;12.174;2023-03-23T04:17:59;1.20;;;0.93;;
53513;SDS011;39768;54.148;12.174;2023-03-23T04:22:00;0.77;;;0.77;;
53513;SDS011;39768;54.148;12.174;2023-03-23T04:26:03;2.63;;;1.42;;
53513;SDS011;39768;54.148;12.174;2023-03-23T04:30:14;3.25;;;1.45;;
53513;SDS011;39768;54.148;12.174;2023-03-23T04:34:19;2.63;;;1.00;;
53513;SDS011;39768;54.148;12.174;2023-03-23T04:38:22;2.42;;;1.10;;
53513;SDS011;39768;54.148;12.174;2023-03-23T04:42:30;1.42;;;1.13;;
53513;SDS011;39768;54.148;12.174;2023-03-23T04:46:51;1.17;;;1.08;;
53513;SDS011;39768;54.148;12.174;2023-03-23T04:50:55;1.38;;;1.27;;
53513;SDS011;39768;54.148;12.174;2023-03-23T04:55:02;1.33;;;0.90;;
53513;SDS011;39768;54.148;12.174;2023-03-23T04:59:03;0.85;;;0.85;;
53513;SDS011;39768;54.148;12.174;2023-03-23T05:03:19;1.10;;;0.90;;
53513;SDS011;39768;54.148;12.174;2023-03-23T05:07:23;1.63;;;1.20;;
53513;SDS011;39768;54.148;12.174;2023-03-23T05:11:26;1.58;;;1.48;;
53513;SDS011;39768;54.148;12.174;2023-03-23T05:15:27;2.15;;;1.80;;
53513;SDS011;39768;54.148;12.174;2023-03-23T05:19:27;5.70;;;1.35;;
53513;SDS011;39768;54.148;12.174;2023-03-23T05:23:31;3.45;;;1.73;;
53513;SDS011;39768;54.148;12.174;2023-03-23T05:27:40;2.35;;;1.50;;
53513;SDS011;39768;54.148;12.174;2023-03-23T05:32:15;3.00;;;1.60;;
53513;SDS011;39768;54.148;12.174;2023-03-23T05:36:18;2.13;;;1.50;;
53513;SDS011;39768;54.148;12.174;2023-03-23T05:40:39;4.35;;;1.98;;
53513;SDS011;39768;54.148;12.174;2023-03-23T05:44:46;1.77;;;1.67;;
53513;SDS011;39768;54.148;12.174;2023-03-23T05:48:48;2.50;;;1.90;;
53513;SDS011;39768;54.148;12.174;2023-03-23T05:52:51;1.85;;;1.38;;
53513;SDS011;39768;54.148;12.174;2023-03-23T05:56:54;8.27;;;1.90;;
53513;SDS011;39768;54.148;12.174;2023-03-23T06:01:10;1.05;;;1.00;;
53513;SDS011;39768;54.148;12.174;2023-03-23T06:05:14;2.03;;;1.65;;
53513;SDS011;39768;54.148;12.174;2023-03-23T06:09:19;1.90;;;1.67;;
53513;SDS011;39768;54.148;12.174;2023-03-23T06:13:52;2.50;;;2.30;;
53513;SDS011;39768;54.148;12.174;2023-03-23T06:17:53;3.53;;;1.90;;
53513;SDS011;39768;54.148;12.174;2023-03-23T06:22:01;1.60;;;1.50;;
53513;SDS011;39768;54.148;12.174;2023-03-23T06:26:24;7.50;;;2.00;;
53513;SDS011;39768;54.148;12.174;2023-03-23T06:30:31;1.60;;;1.50;;
53513;SDS011;39768;54.148;12.174;2023-03-23T06:34:32;3.25;;;1.85;;
53513;SDS011;39768;54.148;12.174;2023-03-23T06:38:51;3.58;;;1.80;;
53513;SDS011;39768;54.148;12.174;2023-03-23T06:42:58;2.33;;;2.10;;
53513;SDS011;39768;54.148;12.174;2023-03-23T06:47:05;2.78;;;2.20;;
53513;SDS011;39768;54.148;12.174;2023-03-23T06:51:10;2.53;;;2.25;;
53513;SDS011;39768;54.148;12.174;2023-03-23T06:55:13;5.45;;;2.67;;
53513;SDS011;39768;54.148;12.174;2023-03-23T06:59:15;2.67;;;2.15;;
53513;SDS011;39768;54.148;12.174;2023-03-23T07:03:16;4.18;;;1.83;;
53513;SDS011;39768;54.148;12.174;2023-03-23T07:07:17;2.75;;;2.55;;
53513;SDS011;39768;54.148;12.174;2023-03-23T07:11:57;3.38;;;2.40;;
53513;SDS011;39768;54.148;12.174;2023-03-23T07:16:08;3.22;;;2.55;;
53513;SDS011;39768;54.148;12.174;2023-03-23T07:20:11;3.55;;;2.35;;
53513;SDS011;39768;54.148;12.174;2023-03-23T07:24:13;4.50;;;2.72;;
53513;SDS011;39768;54.148;12.174;2023-03-23T07:28:33;4.65;;;2.25;;
53513;SDS011;39768;54.148;12.174;2023-03-23T07:32:40;4.35;;;2.80;;
53513;SDS011;39768;54.148;12.174;2023-03-23T07:36:41;2.28;;;1.90;;
53513;SDS011;39768;54.148;12.174;2023-03-23T07:40:45;3.10;;;2.25;;
53513;SDS011;39768;54.148;12.174;2023-03-23T07:44:49;2.63;;;2.15;;
53513;SDS011;39768;54.148;12.174;2023-03-23T07:48:50;3.67;;;2.40;;
53513;SDS011;39768;54.148;12.174;2023-03-23T07:52:53;3.15;;;1.92;;
53513;SDS011;39768;54.148;12.174;2023-03-23T07:56:56;1.45;;;1.35;;
53513;SDS011;39768;54.148;12.174;2023-03-23T08:01:03;1.83;;;1.45;;
53513;SDS011;39768;54.148;12.174;2023-03-23T08:05:07;1.77;;;1.45;;
53513;SDS011;39768;54.148;12.174;2023-03-23T08:09:28;1.20;;;1.10;;
53513;SDS011;39768;54.148;12.174;2023-03-23T08:13:32;1.70;;;1.60;;
53513;SDS011;39768;54.148;12.174;2023-03-23T08:18:05;2.45;;;1.52;;
53513;SDS011;39768;54.148;12.174;2023-03-23T08:22:25;1.92;;;1.58;;
53513;SDS011;39768;54.148;12.174;2023-03-23T08:26:49;1.92;;;1.70;;
53513;SDS011;39768;54.148;12.174;2023-03-23T08:31:11;2.55;;;1.65;;
53513;SDS011;39768;54.148;12.174;2023-03-23T08:35:35;1.77;;;1.67;;
53513;SDS011;39768;54.148;12.174;2023-03-23T08:39:56;2.22;;;1.85;;
53513;SDS011;39768;54.148;12.174;2023-03-23T08:44:06;2.72;;;1.38;;
53513;SDS011;39768;54.148;12.174;2023-03-23T08:48:27;2.22;;;1.83;;
53513;SDS011;39768;54.148;12.174;2023-03-23T08:52:51;5.38;;;1.65;;
53513;SDS011;39768;54.148;12.174;2023-03-23T08:57:13;1.40;;;1.30;;
53513;SDS011;39768;54.148;12.174;2023-03-23T09:01:34;1.30;;;1.20;;
53513;SDS011;39768;54.148;12.174;2023-03-23T09:05:50;1.67;;;1.50;;
53513;SDS011;39768;54.148;12.174;2023-03-23T09:09:57;3.22;;;1.50;;
53513;SDS011;39768;54.148;12.174;2023-03-23T09:13:57;3.85;;;1.45;;
53513;SDS011;39768;54.148;12.174;2023-03-23T09:17:58;3.53;;;1.58;;
53513;SDS011;39768;54.148;12.174;2023-03-23T09:21:59;1.33;;;1.20;;
53513;SDS011;39768;54.148;12.174;2023-03-23T09:26:00;3.00;;;1.48;;
53513;SDS011;39768;54.148;12.174;2023-03-23T09:30:05;1.95;;;1.65;;
53513;SDS011;39768;54.148;12.174;2023-03-23T09:34:08;1.55;;;1.42;;
53513;SDS011;39768;54.148;12.174;2023-03-23T09:38:11;2.05;;;1.05;;
53513;SDS011;39768;54.148;12.174;2023-03-23T09:42:22;1.27;;;1.17;;
53513;SDS011;39768;54.148;12.174;2023-03-23T09:51:04;0.93;;;0.85;;
53513;SDS011;39768;54.148;12.174;2023-03-23T09:55:18;1.77;;;1.00;;
53513;SDS011;39768;54.148;12.174;2023-03-23T09:59:41;1.85;;;1.40;;
53513;SDS011;39768;54.148;12.174;2023-03-23T10:03:47;2.72;;;0.68;;
53513;SDS011;39768;54.148;12.174;2023-03-23T10:07:48;0.73;;;0.73;;
53513;SDS011;39768;54.148;12.174;2023-03-23T10:11:53;0.60;;;0.60;;
53513;SDS011;39768;54.148;12.174;2023-03-23T10:16:00;0.80;;;0.80;;
53513;SDS011;39768;54.148;12.174;2023-03-23T10:24:14;0.47;;;0.47;;
53513;SDS011;39768;54.148;12.174;2023-03-23T10:28:17;1.17;;;0.60;;
53513;SDS011;39768;54.148;12.174;2023-03-23T10:32:36;0.50;;;0.50;;
53513;SDS011;39768;54.148;12.174;2023-03-23T10:36:50;0.60;;;0.60;;
53513;SDS011;39768;54.148;12.174;2023-03-23T10:40:56;1.65;;;0.73;;
53513;SDS011;39768;54.148;12.174;2023-03-23T10:49:23;0.40;;;0.40;;
53513;SDS011;39768;54.148;12.174;2023-03-23T10:53:37;6.32;;;0.52;;
53513;SDS011;39768;54.148;12.174;2023-03-23T10:57:45;0.47;;;0.47;;
53513;SDS011;39768;54.148;12.174;2023-03-23T11:01:51;0.57;;;0.57;;
53513;SDS011;39768;54.148;12.174;2023-03-23T11:10:34;0.80;;;0.50;;
53513;SDS011;39768;54.148;12.174;2023-03-23T11:14:36;0.65;;;0.60;;
53513;SDS011;39768;54.148;12.174;2023-03-23T11:18:41;0.38;;;0.30;;
53513;SDS011;39768;54.148;12.174;2023-03-23T11:22:45;1.05;;;0.80;;
53513;SDS011;39768;54.148;12.174;2023-03-23T11:26:47;1.38;;;1.27;;
53513;SDS011;39768;54.148;12.174;2023-03-23T11:30:48;1.08;;;0.93;;
53513;SDS011;39768;54.148;12.174;2023-03-23T11:34:48;1.08;;;0.70;;
53513;SDS011;39768;54.148;12.174;2023-03-23T11:38:54;0.50;;;0.50;;
53513;SDS011;39768;54.148;12.174;2023-03-23T11:42:59;0.40;;;0.40;;
53513;SDS011;39768;54.148;12.174;2023-03-23T11:51:51;1.90;;;0.85;;
53513;SDS011;39768;54.148;12.174;2023-03-23T12:00:16;2.35;;;0.30;;
53513;SDS011;39768;54.148;12.174;2023-03-23T12:08:43;4.95;;;0.45;;
53513;SDS011;39768;54.148;12.174;2023-03-23T12:13:09;0.63;;;0.60;;
53513;SDS011;39768;54.148;12.174;2023-03-23T12:22:15;8.93;;;0.70;;
53513;SDS011;39768;54.148;12.174;2023-03-23T12:26:25;1.48;;;0.73;;
53513;SDS011;39768;54.148;12.174;2023-03-23T12:30:50;0.40;;;0.40;;
53513;SDS011;39768;54.148;12.174;2023-03-23T12:35:19;0.40;;;0.40;;
53513;SDS011;39768;54.148;12.174;2023-03-23T12:43:55;4.97;;;0.70;;
53513;SDS011;39768;54.148;12.174;2023-03-23T12:48:00;2.78;;;0.70;;
53513;SDS011;39768;54.148;12.174;2023-03-23T13:00:25;0.80;;;0.52;;
53513;SDS011;39768;54.148;12.174;2023-03-23T13:04:32;0.60;;;0.60;;
53513;SDS011;39768;54.148;12.174;2023-03-23T13:08:39;0.63;;;0.55;;
53513;SDS011;39768;54.148;12.174;2023-03-23T13:12:45;1.17;;;0.63;;
53513;SDS011;39768;54.148;12.174;2023-03-23T13:16:51;1.25;;;0.50;;
53513;SDS011;39768;54.148;12.174;2023-03-23T13:21:08;0.50;;;0.50;;
53513;SDS011;39768;54.148;12.174;2023-03-23T13:25:18;0.63;;;0.60;;
53513;SDS011;39768;54.148;12.174;2023-03-23T13:29:29;0.77;;;0.65;;
53513;SDS011;39768;54.148;12.174;2023-03-23T13:33:31;3.30;;;0.60;;
53513;SDS011;39768;54.148;12.174;2023-03-23T13:37:33;0.80;;;0.57;;
53513;SDS011;39768;54.148;12.174;2023-03-23T13:41:34;0.70;;;0.70;;
53513;SDS011;39768;54.148;12.174;2023-03-23T13:45:47;2.53;;;0.90;;
53513;SDS011;39768;54.148;12.174;2023-03-23T13:49:51;0.47;;;0.47;;
53513;SDS011;39768;54.148;12.174;2023-03-23T13:54:05;1.48;;;1.05;;
53513;SDS011;39768;54.148;12.174;2023-03-23T13:58:21;3.35;;;0.70;;
53513;SDS011;39768;54.148;12.174;2023-03-23T14:02:28;0.32;;;0.32;;
53513;SDS011;39768;54.148;12.174;2023-03-23T14:06:33;2.10;;;0.65;;
53513;SDS011;39768;54.148;12.174;2023-03-23T14:10:41;0.57;;;0.57;;
53513;SDS011;39768;54.148;12.174;2023-03-23T14:14:43;0.80;;;0.80;;
53513;SDS011;39768;54.148;12.174;2023-03-23T14:18:59;1.48;;;1.20;;
53513;SDS011;39768;54.148;12.174;2023-03-23T14:23:01;2.20;;;0.85;;
53513;SDS011;39768;54.148;12.174;2023-03-23T14:27:08;0.68;;;0.68;;
53513;SDS011;39768;54.148;12.174;2023-03-23T14:31:14;6.85;;;0.75;;
53513;SDS011;39768;54.148;12.174;2023-03-23T14:35:23;3.08;;;0.95;;
53513;SDS011;39768;54.148;12.174;2023-03-23T14:39:30;0.40;;;0.40;;
53513;SDS011;39768;54.148;12.174;2023-03-23T14:43:35;2.42;;;0.68;;
53513;SDS011;39768;54.148;12.174;2023-03-23T14:47:40;6.45;;;0.85;;
53513;SDS011;39768;54.148;12.174;2023-03-23T14:51:50;4.75;;;0.70;;
53513;SDS011;39768;54.148;12.174;2023-03-23T14:55:53;1.42;;;0.57;;
53513;SDS011;39768;54.148;12.174;2023-03-23T14:59:55;0.88;;;0.68;;
53513;SDS011;39768;54.148;12.174;2023-03-23T15:04:04;0.73;;;0.73;;
53513;SDS011;39768;54.148;12.174;2023-03-23T15:08:15;3.75;;;0.85;;
53513;SDS011;39768;54.148;12.174;2023-03-23T15:12:31;0.45;;;0.45;;
53513;SDS011;39768;54.148;12.174;2023-03-23T15:16:33;2.42;;;0.65;;
53513;SDS011;39768;54.148;12.174;2023-03-23T15:24:42;0.38;;;0.30;;
53513;SDS011;39768;54.148;12.174;2023-03-23T15:28:42;0.57;;;0.57;;
53513;SDS011;39768;54.148;12.174;2023-03-23T15:32:44;1.35;;;0.82;;
53513;SDS011;39768;54.148;12.174;2023-03-23T15:36:45;0.88;;;0.50;;
53513;SDS011;39768;54.148;12.174;2023-03-23T15:40:48;0.70;;;0.65;;
53513;SDS011;39768;54.148;12.174;2023-03-23T15:49:16;0.68;;;0.43;;
53513;SDS011;39768;54.148;12.174;2023-03-23T15:53:24;1.02;;;0.70;;
53513;SDS011;39768;54.148;12.174;2023-03-23T15:57:29;0.50;;;0.50;;
53513;SDS011;39768;54.148;12.174;2023-03-23T16:01:30;3.10;;;0.70;;
53513;SDS011;39768;54.148;12.174;2023-03-23T16:05:31;1.92;;;0.65;;
53513;SDS011;39768;54.148;12.174;2023-03-23T16:09:34;4.05;;;0.70;;
53513;SDS011;39768;54.148;12.174;2023-03-23T16:13:35;1.95;;;0.63;;
53513;SDS011;39768;54.148;12.174;2023-03-23T16:17:38;5.03;;;1.02;;
53513;SDS011;39768;54.148;12.174;2023-03-23T16:21:40;0.45;;;0.45;;
53513;SDS011;39768;54.148;12.174;2023-03-23T16:25:42;0.98;;;0.60;;
53513;SDS011;39768;54.148;12.174;2023-03-23T16:29:44;6.85;;;0.55;;
53513;SDS011;39768;54.148;12.174;2023-03-23T16:34:03;1.02;;;0.30;;
53513;SDS011;39768;54.148;12.174;2023-03-23T16:38:05;1.52;;;0.80;;
53513;SDS011;39768;54.148;12.174;2023-03-23T16:42:09;0.50;;;0.50;;
53513;SDS011;39768;54.148;12.174;2023-03-23T16:46:11;0.40;;;0.40;;
53513;SDS011;39768;54.148;12.174;2023-03-23T16:50:14;0.22;;;0.20;;
53513;SDS011;39768;54.148;12.174;2023-03-23T16:54:17;0.32;;;0.32;;
53513;SDS011;39768;54.148;12.174;2023-03-23T16:58:18;1.58;;;0.32;;
53513;SDS011;39768;54.148;12.174;2023-03-23T17:02:20;0.60;;;0.60;;
53513;SDS011;39768;54.148;12.174;2023-03-23T17:06:22;1.13;;;0.50;;
53513;SDS011;39768;54.148;12.174;2023-03-23T17:10:24;0.28;;;0.22;;
53513;SDS011;39768;54.148;12.174;2023-03-23T17:14:27;0.75;;;0.57;;
53513;SDS011;39768;54.148;12.174;2023-03-23T17:18:29;2.50;;;0.50;;
53513;SDS011;39768;54.148;12.174;2023-03-23T17:22:30;6.55;;;0.75;;
53513;SDS011;39768;54.148;12.174;2023-03-23T17:26:32;1.92;;;0.60;;
53513;SDS011;39768;54.148;12.174;2023-03-23T17:30:34;0.32;;;0.28;;
53513;SDS011;39768;54.148;12.174;2023-03-23T17:34:36;0.82;;;0.40;;
53513;SDS011;39768;54.148;12.174;2023-03-23T17:38:38;0.30;;;0.28;;
53513;SDS011;39768;54.148;12.174;2023-03-23T17:42:39;0.28;;;0.28;;
53513;SDS011;39768;54.148;12.174;2023-03-23T17:46:41;0.40;;;0.40;;
53513;SDS011;39768;54.148;12.174;2023-03-23T17:50:47;0.32;;;0.30;;
53513;SDS011;39768;54.148;12.174;2023-03-23T17:54:49;0.60;;;0.60;;
53513;SDS011;39768;54.148;12.174;2023-03-23T17:58:50;0.77;;;0.77;;
53513;SDS011;39768;54.148;12.174;2023-03-23T18:02:52;1.92;;;0.65;;
53513;SDS011;39768;54.148;12.174;2023-03-23T18:06:54;3.08;;;0.80;;
53513;SDS011;39768;54.148;12.174;2023-03-23T18:10:57;1.77;;;0.88;;
53513;SDS011;39768;54.148;12.174;2023-03-23T18:14:58;0.85;;;0.77;;
53513;SDS011;39768;54.148;12.174;2023-03-23T18:19:00;0.50;;;0.50;;
53513;SDS011;39768;54.148;12.174;2023-03-23T18:23:01;1.33;;;0.95;;
53513;SDS011;39768;54.148;12.174;2023-03-23T18:27:04;2.65;;;0.98;;
53513;SDS011;39768;54.148;12.174;2023-03-23T18:31:07;2.53;;;1.30;;
53513;SDS011;39768;54.148;12.174;2023-03-23T18:35:13;5.13;;;1.48;;
53513;SDS011;39768;54.148;12.174;2023-03-23T18:39:15;1.63;;;0.80;;
53513;SDS011;39768;54.148;12.174;2023-03-23T18:43:16;3.35;;;0.80;;
53513;SDS011;39768;54.148;12.174;2023-03-23T18:47:19;1.75;;;0.73;;
53513;SDS011;39768;54.148;12.174;2023-03-23T18:51:21;1.17;;;0.50;;
53513;SDS011;39768;54.148;12.174;2023-03-23T18:55:23;2.45;;;0.90;;
53513;SDS011;39768;54.148;12.174;2023-03-23T18:59:25;0.95;;;0.57;;
53513;SDS011;39768;54.148;12.174;2023-03-23T19:03:30;2.33;;;0.75;;
53513;SDS011;39768;54.148;12.174;2023-03-23T19:07:32;1.02;;;0.70;;
53513;SDS011;39768;54.148;12.174;2023-03-23T19:11:33;4.15;;;1.52;;
53513;SDS011;39768;54.148;12.174;2023-03-23T19:15:38;0.60;;;0.60;;
53513;SDS011;39768;54.148;12.174;2023-03-23T19:19:41;0.60;;;0.60;;
53513;SDS011;39768;54.148;12.174;2023-03-23T19:23:43;0.50;;;0.47;;
53513;SDS011;39768;54.148;12.174;2023-03-23T19:27:45;0.52;;;0.52;;
53513;SDS011;39768;54.148;12.174;2023-03-23T19:32:07;1.23;;;0.65;;
53513;SDS011;39768;54.148;12.174;2023-03-23T19:36:09;3.13;;;0.45;;
53513;SDS011;39768;54.148;12.174;2023-03-23T19:40:13;0.82;;;0.65;;
53513;SDS011;39768;54.148;12.174;2023-03-23T19:44:35;1.15;;;1.02;;
53513;SDS011;39768;54.148;12.174;2023-03-23T19:48:36;1.33;;;0.45;;
53513;SDS011;39768;54.148;12.174;2023-03-23T19:52:40;0.68;;;0.68;;
53513;SDS011;39768;54.148;12.174;2023-03-23T19:56:42;0.40;;;0.40;;
53513;SDS011;39768;54.148;12.174;2023-03-23T20:00:43;4.45;;;0.70;;
53513;SDS011;39768;54.148;12.174;2023-03-23T20:04:46;0.80;;;0.55;;
53513;SDS011;39768;54.148;12.174;2023-03-23T20:08:48;0.82;;;0.55;;
53513;SDS011;39768;54.148;12.174;2023-03-23T20:12:49;4.18;;;0.68;;
53513;SDS011;39768;54.148;12.174;2023-03-23T20:16:51;2.45;;;0.60;;
53513;SDS011;39768;54.148;12.174;2023-03-23T20:21:01;0.60;;;0.60;;
53513;SDS011;39768;54.148;12.174;2023-03-23T20:25:04;0.73;;;0.60;;
53513;SDS011;39768;54.148;12.174;2023-03-23T20:29:08;5.82;;;0.70;;
53513;SDS011;39768;54.148;12.174;2023-03-23T20:33:10;4.28;;;0.95;;
53513;SDS011;39768;54.148;12.174;2023-03-23T20:37:11;1.85;;;0.90;;
53513;SDS011;39768;54.148;12.174;2023-03-23T20:41:16;3.67;;;0.60;;
53513;SDS011;39768;54.148;12.174;2023-03-23T20:45:18;0.98;;;0.93;;
53513;SDS011;39768;54.148;12.174;2023-03-23T20:49:20;1.83;;;0.70;;
53513;SDS011;39768;54.148;12.174;2023-03-23T20:53:22;0.98;;;0.90;;
53513;SDS011;39768;54.148;12.174;2023-03-23T20:57:24;0.68;;;0.68;;
53513;SDS011;39768;54.148;12.174;2023-03-23T21:01:26;0.50;;;0.50;;
53513;SDS011;39768;54.148;12.174;2023-03-23T21:05:27;2.40;;;0.63;;
53513;SDS011;39768;54.148;12.174;2023-03-23T21:09:29;1.63;;;0.73;;
53513;SDS011;39768;54.148;12.174;2023-03-23T21:13:31;2.05;;;0.90;;
53513;SDS011;39768;54.148;12.174;2023-03-23T21:17:33;0.75;;;0.75;;
53513;SDS011;39768;54.148;12.174;2023-03-23T21:21:35;0.50;;;0.50;;
53513;SDS011;39768;54.148;12.174;2023-03-23T21:25:37;0.52;;;0.47;;
53513;SDS011;39768;54.148;12.174;2023-03-23T21:29:42;3.92;;;0.65;;
53513;SDS011;39768;54.148;12.174;2023-03-23T21:33:45;1.17;;;0.57;;
53513;SDS011;39768;54.148;12.174;2023-03-23T21:37:46;0.70;;;0.57;;
53513;SDS011;39768;54.148;12.174;2023-03-23T21:41:53;0.47;;;0.40;;
53513;SDS011;39768;54.148;12.174;2023-03-23T21:45:55;0.73;;;0.57;;
53513;SDS011;39768;54.148;12.174;2023-03-23T21:49:59;0.60;;;0.60;;
53513;SDS011;39768;54.148;12.174;2023-03-23T21:54:02;0.55;;;0.55;;
53513;SDS011;39768;54.148;12.174;2023-03-23T21:58:03;0.85;;;0.70;;
53513;SDS011;39768;54.148;12.174;2023-03-23T22:02:06;0.43;;;0.43;;
53513;SDS011;39768;54.148;12.174;2023-03-23T22:06:13;1.90;;;0.90;;
53513;SDS011;39768;54.148;12.174;2023-03-23T22:10:17;0.70;;;0.65;;
53513;SDS011;39768;54.148;12.174;2023-03-23T22:14:18;1.67;;;0.85;;
53513;SDS011;39768;54.148;12.174;2023-03-23T22:18:20;2.20;;;0.85;;
53513;SDS011;39768;54.148;12.174;2023-03-23T22:22:21;0.80;;;0.80;;
53513;SDS011;39768;54.148;12.174;2023-03-23T22:26:23;0.85;;;0.82;;
53513;SDS011;39768;54.148;12.174;2023-03-23T22:30:25;2.63;;;1.23;;
53513;SDS011;39768;54.148;12.174;2023-03-23T22:34:29;2.30;;;0.70;;
53513;SDS011;39768;54.148;12.174;2023-03-23T22:38:33;0.98;;;0.82;;
53513;SDS011;39768;54.148;12.174;2023-03-23T22:42:35;0.82;;;0.82;;
53513;SDS011;39768;54.148;12.174;2023-03-23T22:46:37;1.95;;;0.93;;
53513;SDS011;39768;54.148;12.174;2023-03-23T22:50:39;0.55;;;0.55;;
53513;SDS011;39768;54.148;12.174;2023-03-23T22:54:41;3.50;;;0.93;;
53513;SDS011;39768;54.148;12.174;2023-03-23T22:58:42;1.77;;;0.82;;
53513;SDS011;39768;54.148;12.174;2023-03-23T23:02:44;1.40;;;0.93;;
53513;SDS011;39768;54.148;12.174;2023-03-23T23:06:45;2.30;;;1.27;;
53513;SDS011;39768;54.148;12.174;2023-03-23T23:10:47;1.73;;;0.70;;
53513;SDS011;39768;54.148;12.174;2023-03-23T23:14:51;1.38;;;0.90;;
53513;SDS011;39768;54.148;12.174;2023-03-23T23:18:52;1.70;;;0.88;;
53513;SDS011;39768;54.148;12.174;2023-03-23T23:22:55;1.58;;;0.88;;
53513;SDS011;39768;54.148;12.174;2023-03-23T23:26:56;7.25;;;1.27;;
53513;SDS011;39768;54.148;12.174;2023-03-23T23:30:58;1.83;;;0.98;;
53513;SDS011;39768;54.148;12.174;2023-03-23T23:35:00;1.52;;;0.90;;
53513;SDS011;39768;54.148;12.174;2023-03-23T23:39:02;0.95;;;0.88;;
53513;SDS011;39768;54.148;12.174;2023-03-23T23:43:07;1.83;;;1.00;;
53513;SDS011;39768;54.148;12.174;2023-03-23T23:47:10;4.95;;;1.73;;
53513;SDS011;39768;54.148;12.174;2023-03-23T23:51:12;6.82;;;1.17;;
53513;SDS011;39768;54.148;12.174;2023-03-23T23:55:15;5.57;;;1.58;;
53513;SDS011;39768;54.148;12.174;2023-03-23T23:59:17;1.83;;;1.45;;
